Terminal Aerodrome Forecast
Issued by NWS

Home | Current Version | Previous Version | Text Only | Print | Product List | Glossary On
Versions: 1 2 3 4 5 6 7 8 9 10 11 12 13 14 15 16
000
FTUS43 KAPX 300100 AAA
TAFPLN
TAF AMD
KPLN 300119Z 3001/3024 17005KT P6SM BKN140 WS020/20036KT
      TEMPO 3002/3004 4SM -TSRA BR OVC050CB
     FM301400 19008G16KT P6SM BKN150
     FM301900 24007KT 4SM -TSRA BR OVC030CB
     FM302300 27004KT 6SM BR BKN035=

USA.gov is the U.S. government's official web portal to all federal, state and local government web resources and services.